Time;durP1;ratioP1;P1;durP2;ratioP2;P2;SDS_P1;SDS_P2;PMS_P1;PMS_P2;Temp;Humidity;BMP_temperature;BMP_pressure;BME280_temperature;BME280_humidity;BME280_pressure;Samples;Min_cycle;Max_cycle;Signal;HPM_P1;HPM_P2
2023/12/17 00:01:07;;;;;;;19.23;10.70;;;11.30;99.90;;;;;;7285151;19;20310;-81
2023/12/17 00:03:33;;;;;;;19.07;10.50;;;11.30;99.90;;;;;;7283386;19;20201;-81
2023/12/17 00:05:59;;;;;;;18.23;11.77;;;11.30;99.90;;;;;;7305853;19;20196;-81
2023/12/17 00:08:25;;;;;;;18.90;10.63;;;11.20;99.90;;;;;;7284074;19;20296;-81
2023/12/17 00:10:51;;;;;;;19.83;12.23;;;11.20;99.90;;;;;;7280509;19;20746;-81
2023/12/17 00:13:18;;;;;;;17.23;9.77;;;11.30;99.90;;;;;;7283772;19;20192;-81
2023/12/17 00:15:45;;;;;;;18.90;10.83;;;11.20;99.90;;;;;;7282088;19;20201;-81
2023/12/17 00:18:13;;;;;;;18.63;12.13;;;11.20;99.90;;;;;;7282458;19;20636;-81
2023/12/17 00:20:40;;;;;;;19.40;11.90;;;11.20;99.90;;;;;;7283970;19;20189;-81
2023/12/17 00:23:05;;;;;;;20.13;12.13;;;11.10;99.90;;;;;;7282258;19;20206;-81
2023/12/17 00:25:32;;;;;;;20.17;12.50;;;11.10;99.90;;;;;;7304435;19;20196;-81
2023/12/17 00:27:58;;;;;;;20.00;11.40;;;11.10;99.90;;;;;;7283300;19;20957;-81
2023/12/17 00:30:23;;;;;;;17.60;10.90;;;11.10;99.90;;;;;;7281978;19;20188;-81
2023/12/17 00:32:49;;;;;;;18.87;11.90;;;11.20;99.90;;;;;;7282284;19;20203;-81
2023/12/17 00:35:15;;;;;;;18.77;11.70;;;11.20;99.90;;;;;;7283275;19;20192;-82
2023/12/17 00:37:41;;;;;;;26.07;12.03;;;11.20;99.90;;;;;;7282158;19;20196;-81
2023/12/17 00:40:08;;;;;;;23.40;12.30;;;11.20;99.90;;;;;;7284052;19;20548;-81
2023/12/17 00:42:33;;;;;;;22.33;13.13;;;11.30;99.90;;;;;;7281927;19;20189;-80
2023/12/17 00:45:00;;;;;;;20.43;12.23;;;11.20;99.90;;;;;;7305400;19;20203;-81
2023/12/17 00:47:26;;;;;;;23.03;13.00;;;11.10;99.90;;;;;;7282101;19;20272;-81
2023/12/17 00:49:54;;;;;;;24.53;13.27;;;11.00;99.90;;;;;;7282003;19;20237;-81
2023/12/17 00:52:21;;;;;;;27.00;13.80;;;10.90;99.90;;;;;;7281860;19;20200;-81
2023/12/17 00:54:48;;;;;;;23.70;13.60;;;11.10;99.90;;;;;;7282722;19;20303;-81
2023/12/17 00:57:14;;;;;;;24.60;13.47;;;11.10;99.90;;;;;;7281468;19;20197;-81
2023/12/17 00:59:40;;;;;;;22.97;13.40;;;11.10;99.90;;;;;;7283427;19;20545;-81
2023/12/17 01:02:07;;;;;;;22.93;13.60;;;11.00;99.90;;;;;;7282612;19;20193;-81
2023/12/17 01:04:33;;;;;;;22.07;12.47;;;11.00;99.90;;;;;;7288611;19;20187;-80
2023/12/17 01:06:59;;;;;;;23.27;12.43;;;11.00;99.90;;;;;;7304621;19;20195;-81
2023/12/17 01:09:25;;;;;;;23.37;12.83;;;10.90;99.90;;;;;;7280141;19;20185;-82
2023/12/17 01:11:50;;;;;;;22.93;13.73;;;11.00;99.90;;;;;;7282920;19;20196;-81
2023/12/17 01:14:16;;;;;;;19.87;13.03;;;11.00;99.90;;;;;;7282327;19;20259;-82
2023/12/17 01:16:42;;;;;;;21.10;13.07;;;11.00;99.90;;;;;;7279500;19;20195;-81
2023/12/17 01:19:08;;;;;;;21.83;13.80;;;11.00;99.90;;;;;;7283274;19;20470;-81
2023/12/17 01:21:33;;;;;;;23.10;13.20;;;10.90;99.90;;;;;;7284624;19;20185;-81
2023/12/17 01:23:59;;;;;;;22.43;13.97;;;10.90;99.90;;;;;;7310037;19;20717;-81
2023/12/17 01:26:29;;;;;;;23.17;13.87;;;10.90;99.90;;;;;;7287128;19;20264;-81
2023/12/17 01:28:55;;;;;;;25.33;14.80;;;10.90;99.90;;;;;;7285570;19;20183;-81
2023/12/17 01:31:21;;;;;;;26.10;14.53;;;10.90;99.90;;;;;;7287053;19;20204;-81
2023/12/17 01:33:47;;;;;;;26.53;13.50;;;10.80;99.90;;;;;;7288557;19;20193;-81
2023/12/17 01:36:13;;;;;;;23.77;14.37;;;10.80;99.90;;;;;;7286269;19;20655;-81
2023/12/17 01:38:39;;;;;;;24.37;13.67;;;10.90;99.90;;;;;;7287299;19;20185;-81
2023/12/17 01:41:06;;;;;;;24.47;14.07;;;11.00;99.90;;;;;;7287641;19;20185;-81
2023/12/17 01:43:33;;;;;;;21.53;13.37;;;11.20;99.90;;;;;;7295885;19;20181;-80
2023/12/17 01:45:59;;;;;;;23.30;13.77;;;11.20;99.90;;;;;;7309161;19;20193;-81
2023/12/17 01:48:26;;;;;;;26.23;14.40;;;11.20;99.90;;;;;;7288567;19;20185;-81
2023/12/17 01:50:53;;;;;;;24.70;13.50;;;11.20;99.90;;;;;;7287537;19;20195;-82
2023/12/17 01:53:21;;;;;;;25.20;13.73;;;10.90;99.90;;;;;;7288543;19;20196;-82
2023/12/17 01:55:49;;;;;;;23.43;13.43;;;10.90;99.90;;;;;;7286741;19;20185;-81
2023/12/17 01:58:15;;;;;;;21.80;13.17;;;10.80;99.90;;;;;;7286216;19;20552;-81
2023/12/17 02:00:41;;;;;;;23.97;13.60;;;10.70;99.90;;;;;;7288915;19;20544;-82
2023/12/17 02:03:07;;;;;;;24.07;13.73;;;10.70;99.90;;;;;;7286871;19;20221;-81
2023/12/17 02:05:34;;;;;;;23.33;13.30;;;10.80;99.90;;;;;;7291056;19;20652;-81
2023/12/17 02:08:03;;;;;;;22.60;12.77;;;10.90;99.90;;;;;;7309196;19;20289;-82
2023/12/17 02:10:30;;;;;;;24.70;13.43;;;11.00;99.90;;;;;;7286274;19;20192;-81
2023/12/17 02:12:58;;;;;;;22.17;13.10;;;10.90;99.90;;;;;;7286340;19;20648;-82
2023/12/17 02:15:24;;;;;;;21.40;13.03;;;10.90;99.90;;;;;;7271082;19;20202;-82
2023/12/17 02:17:49;;;;;;;21.27;12.43;;;10.80;99.90;;;;;;7285664;19;20196;-82
2023/12/17 02:20:15;;;;;;;22.30;12.80;;;10.70;99.90;;;;;;7288787;19;20189;-81
2023/12/17 02:22:43;;;;;;;21.60;12.47;;;10.60;99.90;;;;;;7285311;19;20203;-81
2023/12/17 02:25:10;;;;;;;25.33;13.77;;;10.70;99.90;;;;;;7287404;19;21043;-82
2023/12/17 02:27:36;;;;;;;21.33;11.63;;;10.80;99.90;;;;;;7286257;19;20226;-81
2023/12/17 02:30:02;;;;;;;21.47;12.93;;;10.70;99.90;;;;;;7303365;19;20211;-80
2023/12/17 02:32:28;;;;;;;20.30;12.20;;;10.80;99.90;;;;;;7303398;19;20987;-81
2023/12/17 02:34:54;;;;;;;21.70;12.00;;;10.80;99.90;;;;;;7274950;19;20200;-82
2023/12/17 02:37:20;;;;;;;22.03;12.50;;;10.80;99.90;;;;;;7285470;19;20189;-82
2023/12/17 02:39:46;;;;;;;21.43;11.93;;;10.70;99.90;;;;;;7288086;19;20191;-82
2023/12/17 02:42:12;;;;;;;21.10;12.20;;;10.80;99.90;;;;;;7285999;19;20185;-82
2023/12/17 02:44:38;;;;;;;21.17;12.10;;;10.70;99.90;;;;;;7284750;19;20218;-81
2023/12/17 02:47:04;;;;;;;22.17;12.90;;;10.70;99.90;;;;;;7286029;19;20264;-81
2023/12/17 02:49:31;;;;;;;20.70;12.57;;;10.80;99.90;;;;;;7308257;19;20185;-82
2023/12/17 02:51:58;;;;;;;21.30;12.20;;;10.90;99.90;;;;;;7285686;19;20268;-81
2023/12/17 02:54:24;;;;;;;20.90;12.30;;;10.80;99.90;;;;;;7285987;19;20201;-81
2023/12/17 02:56:51;;;;;;;21.73;12.57;;;10.70;99.90;;;;;;7284330;19;20192;-82
2023/12/17 02:59:17;;;;;;;20.00;11.70;;;10.80;99.90;;;;;;7285664;19;20665;-82
2023/12/17 03:01:43;;;;;;;21.00;11.90;;;10.70;99.90;;;;;;7285271;19;20197;-81
2023/12/17 03:04:13;;;;;;;20.23;11.67;;;10.70;99.90;;;;;;7282679;19;20188;-82
2023/12/17 03:06:40;;;;;;;20.60;11.70;;;10.60;99.90;;;;;;7284685;19;20649;-82
2023/12/17 03:09:06;;;;;;;17.50;10.63;;;10.50;99.90;;;;;;7285491;19;20185;-81
2023/12/17 03:11:32;;;;;;;20.07;11.97;;;10.40;99.90;;;;;;7300339;19;20616;-81
2023/12/17 03:13:58;;;;;;;20.17;11.70;;;10.40;99.90;;;;;;7302261;19;20198;-82
2023/12/17 03:16:26;;;;;;;20.50;12.30;;;10.30;99.90;;;;;;7285114;19;21066;-82
2023/12/17 03:18:52;;;;;;;19.53;11.53;;;10.40;99.90;;;;;;7284696;19;20205;-82
2023/12/17 03:21:18;;;;;;;21.13;12.00;;;10.40;99.90;;;;;;7284533;19;20681;-81
2023/12/17 03:23:45;;;;;;;21.80;12.20;;;10.40;99.90;;;;;;7284105;19;20205;-82
2023/12/17 03:26:11;;;;;;;19.60;11.07;;;10.40;99.90;;;;;;7284687;19;20181;-82
2023/12/17 03:28:37;;;;;;;19.03;11.40;;;10.30;99.90;;;;;;7283116;19;20207;-82
2023/12/17 03:31:03;;;;;;;23.97;12.40;;;10.30;99.90;;;;;;7295481;19;20637;-81
2023/12/17 03:33:29;;;;;;;21.20;11.67;;;10.20;99.90;;;;;;7305909;19;20191;-82
2023/12/17 03:35:55;;;;;;;21.73;11.97;;;10.30;99.90;;;;;;7281926;19;20196;-82
2023/12/17 03:38:21;;;;;;;22.90;11.70;;;10.40;99.90;;;;;;7284295;19;20203;-82
2023/12/17 03:40:47;;;;;;;20.47;11.40;;;10.40;99.90;;;;;;7282995;19;20185;-81
2023/12/17 03:43:13;;;;;;;19.53;10.83;;;10.40;99.90;;;;;;7268757;19;20192;-82
2023/12/17 03:45:39;;;;;;;23.73;11.93;;;10.40;99.90;;;;;;7271489;19;20271;-82
2023/12/17 03:48:06;;;;;;;22.60;11.57;;;10.30;99.90;;;;;;7284069;19;20180;-81
2023/12/17 03:50:32;;;;;;;20.43;10.97;;;10.30;99.90;;;;;;7299796;19;20258;-80
2023/12/17 03:52:57;;;;;;;19.97;11.00;;;10.30;99.90;;;;;;7295192;19;20192;-81
2023/12/17 03:55:24;;;;;;;19.27;11.13;;;10.20;99.90;;;;;;7284159;19;21453;-82
2023/12/17 03:57:49;;;;;;;20.17;11.17;;;10.20;99.90;;;;;;7282868;19;20192;-82
2023/12/17 04:00:15;;;;;;;23.13;12.13;;;10.30;99.90;;;;;;7284790;19;20185;-82
2023/12/17 04:02:41;;;;;;;19.37;11.60;;;10.20;99.90;;;;;;7284467;19;20200;-81
2023/12/17 04:05:08;;;;;;;19.07;11.57;;;10.30;99.90;;;;;;7279624;19;20191;-82
2023/12/17 04:07:34;;;;;;;20.70;12.23;;;10.30;99.90;;;;;;7279320;19;20190;-81
2023/12/17 04:10:01;;;;;;;23.47;13.20;;;10.30;99.90;;;;;;7301539;19;20210;-82
2023/12/17 04:12:27;;;;;;;24.47;13.00;;;10.30;99.90;;;;;;7282310;19;20323;-81
2023/12/17 04:14:53;;;;;;;22.27;12.63;;;10.30;99.90;;;;;;7282015;19;20194;-81
2023/12/17 04:17:19;;;;;;;25.00;13.23;;;10.30;99.90;;;;;;7282780;19;20204;-82
2023/12/17 04:19:45;;;;;;;23.97;13.17;;;10.30;99.90;;;;;;7281557;19;20655;-81
2023/12/17 04:22:12;;;;;;;20.67;12.83;;;10.30;99.90;;;;;;7282281;19;20670;-82
2023/12/17 04:24:38;;;;;;;23.23;12.73;;;10.30;99.90;;;;;;7279930;19;20555;-81
2023/12/17 04:27:04;;;;;;;24.73;13.30;;;10.30;99.90;;;;;;7283821;19;20193;-81
2023/12/17 04:29:30;;;;;;;22.83;12.87;;;10.30;99.90;;;;;;7304846;19;20188;-82
2023/12/17 04:31:56;;;;;;;21.43;13.00;;;10.30;99.90;;;;;;7283327;19;20210;-82
2023/12/17 04:34:21;;;;;;;20.97;12.13;;;10.30;99.90;;;;;;7281255;19;21266;-82
2023/12/17 04:36:47;;;;;;;24.03;12.70;;;10.30;99.90;;;;;;7282295;19;20187;-81
2023/12/17 04:39:13;;;;;;;22.77;12.37;;;10.30;99.90;;;;;;7282020;19;20200;-81
2023/12/17 04:41:40;;;;;;;20.40;11.63;;;10.30;99.90;;;;;;7281287;19;21087;-81
2023/12/17 04:44:06;;;;;;;21.67;11.63;;;10.20;99.90;;;;;;7278468;19;20248;-81
2023/12/17 04:46:32;;;;;;;21.93;11.67;;;10.20;99.90;;;;;;7303620;19;20191;-81
2023/12/17 04:48:58;;;;;;;19.10;10.30;;;10.30;99.90;;;;;;7282093;19;20934;-82
2023/12/17 04:51:25;;;;;;;20.07;10.73;;;10.20;99.90;;;;;;7279695;19;20203;-81
2023/12/17 04:53:51;;;;;;;21.00;11.83;;;10.20;99.90;;;;;;7281060;19;20196;-81
2023/12/17 04:56:18;;;;;;;22.20;11.27;;;10.10;99.90;;;;;;7285798;19;20198;-82
2023/12/17 04:58:45;;;;;;;20.90;10.90;;;10.10;99.90;;;;;;7287853;19;20594;-82
2023/12/17 05:01:11;;;;;;;20.00;11.27;;;10.10;99.90;;;;;;7288216;19;20191;-82
2023/12/17 05:03:38;;;;;;;22.37;11.33;;;10.10;99.90;;;;;;7286932;19;20300;-81
2023/12/17 05:06:05;;;;;;;20.33;11.63;;;10.10;99.90;;;;;;7290127;19;20200;-81
2023/12/17 05:08:32;;;;;;;22.37;11.57;;;10.10;99.90;;;;;;7310672;19;20184;-81
2023/12/17 05:10:58;;;;;;;23.97;11.63;;;9.90;99.90;;;;;;7286303;19;20222;-81
2023/12/17 05:13:23;;;;;;;22.50;11.97;;;9.80;99.90;;;;;;7289277;19;20185;-82
2023/12/17 05:15:50;;;;;;;22.30;12.07;;;9.70;99.90;;;;;;7288337;19;20206;-82
2023/12/17 05:18:15;;;;;;;23.50;12.03;;;9.90;99.90;;;;;;7287071;19;20192;-82
2023/12/17 05:20:41;;;;;;;24.87;13.13;;;9.80;99.90;;;;;;7287011;19;20207;-82
2023/12/17 05:23:12;;;;;;;22.57;12.67;;;9.70;99.90;;;;;;7286358;19;20295;-80
2023/12/17 05:25:39;;;;;;;29.07;14.77;;;9.60;99.90;;;;;;7289117;19;20668;-80
2023/12/17 05:28:07;;;;;;;28.10;14.17;;;9.70;99.90;;;;;;7284719;19;20187;-79
2023/12/17 05:30:33;;;;;;;32.63;15.47;;;9.80;99.90;;;;;;7296216;19;20187;-80
2023/12/17 05:32:58;;;;;;;35.40;17.80;;;9.70;99.90;;;;;;7304427;19;20209;-81
2023/12/17 05:35:24;;;;;;;36.67;19.07;;;9.60;99.90;;;;;;7284138;19;20191;-81
2023/12/17 05:37:50;;;;;;;41.17;19.97;;;9.70;99.90;;;;;;7284287;19;20191;-80
2023/12/17 05:40:16;;;;;;;34.83;19.00;;;9.70;99.90;;;;;;7284406;19;20202;-80
2023/12/17 05:42:41;;;;;;;42.33;20.90;;;9.70;99.90;;;;;;7285128;19;20187;-80
2023/12/17 05:45:08;;;;;;;41.70;20.50;;;9.70;99.90;;;;;;7287992;19;20252;-80
2023/12/17 05:47:34;;;;;;;40.43;21.20;;;9.60;99.90;;;;;;7279815;19;20194;-79
2023/12/17 05:50:01;;;;;;;44.47;21.63;;;9.70;99.90;;;;;;7309050;19;20710;-80
2023/12/17 05:52:27;;;;;;;42.13;21.30;;;9.80;99.90;;;;;;7288513;19;20580;-81
2023/12/17 05:54:53;;;;;;;46.00;22.63;;;9.80;99.90;;;;;;7286328;19;20248;-81
2023/12/17 05:57:18;;;;;;;41.60;22.03;;;9.90;99.90;;;;;;7286044;19;20204;-80
2023/12/17 05:59:44;;;;;;;46.33;21.40;;;10.00;99.90;;;;;;7286474;19;20865;-80
2023/12/17 06:02:10;;;;;;;47.63;21.23;;;10.00;99.90;;;;;;7285998;19;20555;-80
2023/12/17 06:04:36;;;;;;;44.80;20.17;;;10.00;99.90;;;;;;7286454;19;20196;-80
2023/12/17 06:07:02;;;;;;;44.40;21.07;;;10.10;99.90;;;;;;7308693;19;20270;-81
2023/12/17 06:09:27;;;;;;;42.60;20.27;;;10.00;99.90;;;;;;7287449;19;20183;-80
2023/12/17 06:11:55;;;;;;;40.03;20.00;;;9.90;99.90;;;;;;7286734;19;20660;-80
2023/12/17 06:14:20;;;;;;;40.07;20.33;;;9.90;99.90;;;;;;7285147;19;20541;-80
2023/12/17 06:16:46;;;;;;;38.57;20.00;;;9.80;99.90;;;;;;7287430;19;20194;-81
2023/12/17 06:19:12;;;;;;;42.60;20.40;;;9.80;99.90;;;;;;7283921;19;20199;-80
2023/12/17 06:21:38;;;;;;;42.47;20.83;;;9.70;99.90;;;;;;7285746;19;20227;-79
2023/12/17 06:24:04;;;;;;;48.40;22.27;;;9.80;99.90;;;;;;7286817;19;20286;-79
2023/12/17 06:26:30;;;;;;;50.67;24.10;;;9.90;99.90;;;;;;7309107;19;20216;-80
2023/12/17 06:28:57;;;;;;;52.73;23.63;;;9.80;99.90;;;;;;7286927;19;20180;-81
2023/12/17 06:31:24;;;;;;;55.80;25.23;;;9.70;99.90;;;;;;7286622;19;20194;-81
2023/12/17 06:33:53;;;;;;;57.50;24.33;;;9.70;99.90;;;;;;7284898;19;20181;-80
2023/12/17 06:36:19;;;;;;;50.07;23.23;;;9.80;99.90;;;;;;7285714;19;20190;-80
2023/12/17 06:38:46;;;;;;;50.57;24.50;;;9.70;99.90;;;;;;7288166;19;20187;-80
2023/12/17 06:41:11;;;;;;;59.23;24.90;;;9.70;99.90;;;;;;7288203;19;20712;-81
2023/12/17 06:43:39;;;;;;;54.07;24.60;;;9.60;99.90;;;;;;7286860;19;20255;-81
2023/12/17 06:46:07;;;;;;;59.53;25.23;;;9.50;99.90;;;;;;7287421;19;20180;-80
2023/12/17 06:48:35;;;;;;;56.70;24.63;;;9.60;99.90;;;;;;7303334;19;20219;-79
2023/12/17 06:51:04;;;;;;;63.13;24.60;;;9.40;99.90;;;;;;7307567;19;20719;-81
2023/12/17 06:53:30;;;;;;;59.77;25.33;;;9.30;99.90;;;;;;7286458;19;20187;-80
2023/12/17 06:55:56;;;;;;;57.33;24.27;;;9.30;99.90;;;;;;7287364;19;20661;-80
2023/12/17 06:58:22;;;;;;;55.07;24.80;;;9.50;99.90;;;;;;7285463;19;20207;-81
2023/12/17 07:00:47;;;;;;;62.07;25.43;;;9.60;99.90;;;;;;7288158;19;20195;-80
2023/12/17 07:03:18;;;;;;;67.30;26.50;;;9.50;99.90;;;;;;7285353;19;20372;-80
2023/12/17 07:05:44;;;;;;;64.00;26.07;;;9.40;99.90;;;;;;7285004;19;20187;-80
2023/12/17 07:08:10;;;;;;;64.93;26.93;;;9.30;99.90;;;;;;7285760;19;20206;-80
2023/12/17 07:10:35;;;;;;;61.33;26.47;;;9.20;99.90;;;;;;7281363;19;20186;-80
2023/12/17 07:13:03;;;;;;;62.17;25.43;;;9.10;99.90;;;;;;7308026;19;20194;-81
2023/12/17 07:15:29;;;;;;;64.17;25.57;;;9.00;99.90;;;;;;7285020;19;20326;-80
2023/12/17 07:17:55;;;;;;;65.00;27.17;;;8.90;99.90;;;;;;7282467;19;20190;-80
2023/12/17 07:20:21;;;;;;;65.20;26.23;;;8.90;99.90;;;;;;7284835;19;20207;-79
2023/12/17 07:22:48;;;;;;;59.87;27.07;;;9.00;99.90;;;;;;7283155;19;20198;-79
2023/12/17 07:25:15;;;;;;;66.07;26.47;;;8.90;99.90;;;;;;7285327;19;20675;-79
2023/12/17 07:27:41;;;;;;;61.60;25.80;;;9.00;99.90;;;;;;7285823;19;20179;-79
2023/12/17 07:30:07;;;;;;;55.73;24.80;;;8.90;99.90;;;;;;7284574;19;20198;-78
2023/12/17 07:32:34;;;;;;;58.80;23.77;;;8.80;99.90;;;;;;7291518;19;20267;-78
2023/12/17 07:34:59;;;;;;;55.00;23.77;;;8.70;99.90;;;;;;7307269;19;20278;-79
2023/12/17 07:37:25;;;;;;;47.30;20.97;;;8.70;99.90;;;;;;7283876;19;20265;-79
2023/12/17 07:39:52;;;;;;;50.93;21.63;;;8.60;99.90;;;;;;7282966;19;20216;-79
2023/12/17 07:42:17;;;;;;;47.70;21.60;;;8.60;99.90;;;;;;7284246;19;20195;-79
2023/12/17 07:44:43;;;;;;;47.43;20.73;;;8.70;99.90;;;;;;7282913;19;20301;-79
2023/12/17 07:47:10;;;;;;;51.90;20.70;;;8.80;99.90;;;;;;7283859;19;20186;-79
2023/12/17 07:49:37;;;;;;;45.73;20.97;;;8.70;99.90;;;;;;7284611;19;20346;-79
2023/12/17 07:52:03;;;;;;;49.23;19.93;;;8.60;99.90;;;;;;7296913;19;20191;-79
2023/12/17 07:54:29;;;;;;;50.20;20.73;;;8.50;99.90;;;;;;7305607;19;20286;-79
2023/12/17 07:56:55;;;;;;;49.67;19.27;;;8.60;99.90;;;;;;7282083;19;20676;-79
2023/12/17 07:59:21;;;;;;;48.53;19.07;;;8.60;99.90;;;;;;7347241;19;20269;-80
2023/12/17 08:01:46;;;;;;;44.50;18.13;;;8.70;99.90;;;;;;7395898;19;20135;-80
2023/12/17 08:04:13;;;;;;;47.13;17.87;;;8.70;99.90;;;;;;7373389;19;20183;-80
2023/12/17 08:06:39;;;;;;;45.13;17.63;;;8.60;99.90;;;;;;7285630;19;20190;-79
2023/12/17 08:09:04;;;;;;;46.30;18.30;;;8.30;99.90;;;;;;7282902;19;20209;-81
2023/12/17 08:11:30;;;;;;;44.23;18.83;;;8.20;99.90;;;;;;7305008;19;20304;-80
2023/12/17 08:13:56;;;;;;;48.83;18.87;;;8.10;99.90;;;;;;7282582;19;20194;-80
2023/12/17 08:16:22;;;;;;;45.03;18.27;;;8.00;99.90;;;;;;7284282;19;20190;-79
2023/12/17 08:18:47;;;;;;;41.03;17.80;;;7.90;99.90;;;;;;7284321;19;20189;-80
2023/12/17 08:21:13;;;;;;;46.57;17.80;;;8.00;99.90;;;;;;7283898;19;20185;-79
2023/12/17 08:23:39;;;;;;;46.17;18.50;;;8.00;99.90;;;;;;7283419;19;20186;-79
2023/12/17 08:26:05;;;;;;;40.70;18.50;;;8.10;99.90;;;;;;7282061;19;20568;-79
2023/12/17 08:28:30;;;;;;;42.20;18.73;;;8.30;99.90;;;;;;7305198;19;20238;-79
2023/12/17 08:30:56;;;;;;;47.43;18.60;;;8.40;99.90;;;;;;7280059;19;20193;-79
2023/12/17 08:33:22;;;;;;;48.13;24.13;;;8.50;99.90;;;;;;7285090;19;20199;-80
2023/12/17 08:35:47;;;;;;;38.93;17.90;;;8.40;99.90;;;;;;7282551;19;20189;-80
2023/12/17 08:38:13;;;;;;;46.30;18.67;;;8.20;99.90;;;;;;7282748;19;20200;-80
2023/12/17 08:40:40;;;;;;;40.17;17.63;;;8.30;99.90;;;;;;7283918;19;20242;-79
2023/12/17 08:43:07;;;;;;;34.83;16.43;;;8.20;99.90;;;;;;7269132;19;20581;-79
2023/12/17 08:45:34;;;;;;;39.00;17.47;;;7.90;99.90;;;;;;7295659;19;20189;-79
2023/12/17 08:48:00;;;;;;;39.37;16.83;;;7.80;99.90;;;;;;7304834;19;20189;-80
2023/12/17 08:50:26;;;;;;;41.23;16.30;;;7.80;99.90;;;;;;7283033;19;20201;-80
2023/12/17 08:52:52;;;;;;;39.63;15.20;;;7.70;99.90;;;;;;7282576;19;20193;-80
2023/12/17 08:55:19;;;;;;;34.70;16.60;;;7.70;99.90;;;;;;7282537;19;20225;-80
2023/12/17 08:57:46;;;;;;;33.27;15.50;;;7.80;99.90;;;;;;7281982;19;20563;-81
2023/12/17 09:00:13;;;;;;;38.37;15.20;;;7.80;99.90;;;;;;7282898;19;20204;-80
2023/12/17 09:02:39;;;;;;;37.30;15.53;;;7.80;99.90;;;;;;7283456;19;20188;-80
2023/12/17 09:05:05;;;;;;;40.53;16.60;;;7.70;99.90;;;;;;7282194;19;20192;-80
2023/12/17 09:07:31;;;;;;;37.10;14.67;;;7.80;99.90;;;;;;7304633;19;20281;-80
2023/12/17 09:09:57;;;;;;;36.10;15.63;;;7.80;99.90;;;;;;7281652;19;20201;-80
2023/12/17 09:12:23;;;;;;;32.70;13.80;;;7.90;99.90;;;;;;7283771;19;20194;-81
2023/12/17 09:14:49;;;;;;;35.40;15.60;;;7.90;99.90;;;;;;7283007;19;20200;-80
2023/12/17 09:17:15;;;;;;;37.30;15.37;;;7.90;99.90;;;;;;7280026;19;20968;-81
2023/12/17 09:19:41;;;;;;;33.17;14.27;;;8.00;99.90;;;;;;7282194;19;20206;-80
2023/12/17 09:22:07;;;;;;;33.53;12.77;;;8.20;99.90;;;;;;7281932;19;21040;-81
2023/12/17 09:24:32;;;;;;;32.33;13.30;;;8.30;99.90;;;;;;7300116;19;20198;-80
2023/12/17 09:26:59;;;;;;;34.07;13.20;;;8.40;99.90;;;;;;7295586;19;20185;-80
2023/12/17 09:29:25;;;;;;;30.03;12.77;;;8.40;99.90;;;;;;7281872;19;20198;-81
2023/12/17 09:31:51;;;;;;;34.03;12.43;;;8.50;99.90;;;;;;7281401;19;20305;-81
2023/12/17 09:34:17;;;;;;;27.37;11.60;;;8.50;99.90;;;;;;7281548;19;20648;-81
2023/12/17 09:36:43;;;;;;;34.50;12.43;;;8.50;99.90;;;;;;7279396;19;20272;-78
2023/12/17 09:39:09;;;;;;;29.47;11.50;;;8.60;99.90;;;;;;7282126;19;20259;-79
2023/12/17 09:41:36;;;;;;;33.50;11.33;;;8.60;99.90;;;;;;7283252;19;20197;-78
2023/12/17 09:44:04;;;;;;;27.27;11.07;;;8.60;99.90;;;;;;7309768;19;20276;-80
2023/12/17 09:46:30;;;;;;;29.47;11.77;;;8.60;99.90;;;;;;7290549;19;20190;-79
2023/12/17 09:48:55;;;;;;;30.10;10.67;;;8.60;99.90;;;;;;7288724;19;20244;-80
2023/12/17 09:51:24;;;;;;;27.53;11.07;;;8.50;99.90;;;;;;7288176;19;20189;-80
2023/12/17 09:53:50;;;;;;;29.87;10.30;;;8.60;99.90;;;;;;7286735;19;20186;-80
2023/12/17 09:56:15;;;;;;;29.40;10.40;;;8.60;99.90;;;;;;7287220;19;20668;-80
2023/12/17 09:58:41;;;;;;;29.80;10.67;;;8.60;99.90;;;;;;7284899;19;20189;-80
2023/12/17 10:01:07;;;;;;;22.80;9.47;;;8.70;99.90;;;;;;7288879;19;20186;-80
2023/12/17 10:03:33;;;;;;;29.17;10.10;;;8.80;99.90;;;;;;7306384;19;20191;-80
2023/12/17 10:05:59;;;;;;;31.33;9.90;;;8.90;99.90;;;;;;7302173;19;20186;-80
2023/12/17 10:08:27;;;;;;;30.93;10.00;;;9.00;99.90;;;;;;7288055;19;20196;-80
2023/12/17 10:10:52;;;;;;;25.07;8.63;;;8.90;99.90;;;;;;7285698;19;21134;-80
2023/12/17 10:13:19;;;;;;;26.40;9.40;;;9.00;99.90;;;;;;7287874;19;20202;-80
2023/12/17 10:15:53;;;;;;;24.73;8.33;;;9.20;99.90;;;;;;7285134;19;20195;-80
2023/12/17 10:18:19;;;;;;;24.67;8.47;;;9.60;99.90;;;;;;7287135;19;20202;-80
2023/12/17 10:20:46;;;;;;;25.37;7.63;;;10.10;99.90;;;;;;7286266;19;20212;-80
2023/12/17 10:23:13;;;;;;;18.93;7.50;;;10.90;99.90;;;;;;7286533;19;20588;-80
2023/12/17 10:25:40;;;;;;;18.97;7.50;;;11.80;99.90;;;;;;7285717;19;20193;-80
2023/12/17 10:28:09;;;;;;;18.20;7.00;;;12.70;99.90;;;;;;7287382;19;20194;-80
2023/12/17 10:30:36;;;;;;;17.37;7.13;;;13.10;99.90;;;;;;7286673;19;20680;-78
2023/12/17 10:33:03;;;;;;;19.87;7.63;;;12.80;99.90;;;;;;7308049;19;20199;-78
2023/12/17 10:35:30;;;;;;;18.57;7.27;;;12.40;99.90;;;;;;7285522;19;20194;-78
2023/12/17 10:38:03;;;;;;;19.77;7.33;;;12.40;99.90;;;;;;7285700;19;20190;-78
2023/12/17 10:40:30;;;;;;;18.60;6.73;;;12.60;99.90;;;;;;7288069;19;20197;-78
2023/12/17 10:42:58;;;;;;;19.73;7.43;;;13.20;99.90;;;;;;7285308;19;20191;-80
2023/12/17 10:45:25;;;;;;;19.50;7.20;;;14.00;99.90;;;;;;7286367;19;20189;-79
2023/12/17 10:47:53;;;;;;;18.40;6.97;;;14.80;99.90;;;;;;7287523;19;20215;-78
2023/12/17 10:50:19;;;;;;;18.50;7.00;;;15.10;99.90;;;;;;7285287;19;20198;-78
2023/12/17 10:52:47;;;;;;;16.57;6.80;;;15.90;99.90;;;;;;7285558;19;20202;-78
2023/12/17 10:55:14;;;;;;;14.90;6.10;;;16.50;99.90;;;;;;7283882;19;20691;-78
2023/12/17 10:57:45;;;;;;;13.17;6.07;;;17.10;99.90;;;;;;7284296;19;20195;-79
2023/12/17 11:00:14;;;;;;;17.17;6.63;;;17.70;99.90;;;;;;7286271;19;20200;-78
2023/12/17 11:02:40;;;;;;;16.27;6.53;;;18.30;99.90;;;;;;7281020;19;20193;-78
2023/12/17 11:05:06;;;;;;;14.93;6.53;;;18.60;99.90;;;;;;7286103;19;20185;-79
2023/12/17 11:07:32;;;;;;;15.80;6.97;;;18.70;99.90;;;;;;7307116;19;20185;-78
2023/12/17 11:10:01;;;;;;;18.13;7.53;;;18.60;99.90;;;;;;7285381;19;20186;-78
2023/12/17 11:12:27;;;;;;;16.23;6.93;;;18.40;99.90;;;;;;7285310;19;20197;-80
2023/12/17 11:14:54;;;;;;;16.13;7.40;;;18.40;99.90;;;;;;7286778;19;20673;-80
2023/12/17 11:17:20;;;;;;;16.63;7.03;;;18.20;99.90;;;;;;7285205;19;20674;-80
2023/12/17 11:20:02;;;;;;;16.17;7.57;;;18.80;99.90;;;;;;7285392;19;20187;-79
2023/12/17 11:22:33;;;;;;;16.93;7.17;;;18.90;99.90;;;;;;7286216;19;20187;-80
2023/12/17 11:24:59;;;;;;;17.23;7.20;;;19.20;99.90;;;;;;7285622;19;20199;-80
2023/12/17 11:27:25;;;;;;;17.23;7.33;;;19.30;99.90;;;;;;7285467;19;20996;-80
2023/12/17 11:29:55;;;;;;;16.43;7.70;;;19.50;99.90;;;;;;7282520;19;20545;-80
2023/12/17 11:32:24;;;;;;;19.03;8.03;;;19.20;99.90;;;;;;7283737;19;20603;-80
2023/12/17 11:34:50;;;;;;;17.93;7.33;;;19.00;99.90;;;;;;7283336;19;20196;-81
2023/12/17 11:37:21;;;;;;;20.03;7.37;;;19.10;99.90;;;;;;7282302;19;20223;-79
2023/12/17 11:39:50;;;;;;;15.40;7.07;;;19.40;99.90;;;;;;7284613;19;20206;-81
2023/12/17 11:42:19;;;;;;;16.70;7.23;;;19.10;99.90;;;;;;7281418;19;20635;-79
2023/12/17 11:44:51;;;;;;;15.53;6.87;;;18.50;99.90;;;;;;7368507;19;20681;-79
2023/12/17 11:47:26;;;;;;;20.43;7.57;;;18.40;99.90;;;;;;7391443;19;20158;-80
2023/12/17 11:49:58;;;;;;;17.20;7.97;;;18.20;99.90;;;;;;7393720;19;20144;-80
2023/12/17 11:52:25;;;;;;;16.93;7.60;;;18.40;99.90;;;;;;7393179;19;20580;-80
2023/12/17 11:54:58;;;;;;;18.90;7.07;;;18.90;99.90;;;;;;7326494;19;20758;-80
2023/12/17 11:57:24;;;;;;;19.03;7.20;;;19.30;99.90;;;;;;7267960;19;20207;-79
2023/12/17 11:59:50;;;;;;;15.53;7.20;;;19.40;99.90;;;;;;7282155;19;20197;-79
2023/12/17 12:02:21;;;;;;;16.63;6.77;;;19.30;99.90;;;;;;7280675;19;20182;-80
2023/12/17 12:04:48;;;;;;;15.50;7.03;;;19.10;99.90;;;;;;7282139;19;20256;-79
2023/12/17 12:07:18;;;;;;;17.13;7.50;;;19.40;99.90;;;;;;7266300;19;20672;-80
2023/12/17 12:09:48;;;;;;;16.83;7.27;;;19.00;99.90;;;;;;7278790;19;20192;-80
2023/12/17 12:12:20;;;;;;;18.43;7.43;;;19.10;99.90;;;;;;7279564;19;20205;-79
2023/12/17 12:14:48;;;;;;;16.03;7.30;;;19.30;99.90;;;;;;7262699;19;20652;-80
2023/12/17 12:17:37;;;;;;;18.27;7.17;;;19.30;99.90;;;;;;7279729;19;20209;-79
2023/12/17 12:20:10;;;;;;;15.23;6.73;;;19.30;99.90;;;;;;7280919;19;20188;-80
2023/12/17 12:22:38;;;;;;;18.07;7.03;;;19.10;99.90;;;;;;7259962;19;20199;-79
2023/12/17 12:25:04;;;;;;;12.90;6.27;;;18.30;99.90;;;;;;7301807;19;20580;-79
2023/12/17 12:27:30;;;;;;;14.27;6.10;;;18.00;99.90;;;;;;7279555;19;20390;-79
2023/12/17 12:29:57;;;;;;;17.67;6.57;;;17.90;99.90;;;;;;7279634;19;20192;-79